Time;durP1;ratioP1;P1;durP2;ratioP2;P2;SDS_P1;SDS_P2;PMS_P1;PMS_P2;Temp;Humidity;BMP_temperature;BMP_pressure;BME280_temperature;BME280_humidity;BME280_pressure;Samples;Min_cycle;Max_cycle;Signal;HPM_P1;HPM_P2
2021/12/19 00:04:38;;;;;;;1.65;1.27;;;17.00;52.40;16.10;103045.00;;;;5035683;28;21972;-67
2021/12/19 00:10:30;;;;;;;1.80;1.35;;;17.00;52.40;16.10;103048.00;;;;5049494;28;20044;-67
2021/12/19 00:13:16;;;;;;;3.97;1.42;;;17.00;52.40;16.10;103052.00;;;;5034352;28;20067;-67
2021/12/19 00:16:02;;;;;;;1.85;1.10;;;17.00;52.40;16.10;103035.00;;;;5046340;28;20552;-67
2021/12/19 00:18:50;;;;;;;2.97;1.20;;;17.00;52.40;16.10;103032.00;;;;5047907;28;20132;-67
2021/12/19 00:21:36;;;;;;;2.08;1.70;;;17.00;52.40;16.10;103027.00;;;;5021515;28;20037;-67
2021/12/19 00:24:24;;;;;;;2.22;1.33;;;17.00;52.40;16.10;103028.00;;;;5046377;28;20496;-67
2021/12/19 00:27:10;;;;;;;2.10;1.30;;;17.00;52.40;16.10;103024.00;;;;5047308;28;20041;-67
2021/12/19 00:29:58;;;;;;;1.40;1.30;;;17.00;52.30;16.10;103025.00;;;;5043296;28;20037;-67
2021/12/19 00:32:44;;;;;;;2.10;1.55;;;17.00;52.40;16.10;103021.00;;;;5045439;28;20040;-67
2021/12/19 00:35:30;;;;;;;2.05;1.38;;;17.00;52.30;16.10;103020.00;;;;5035635;28;20072;-67
2021/12/19 00:38:16;;;;;;;2.03;1.40;;;17.00;52.30;16.10;103016.00;;;;5037606;28;20470;-67
2021/12/19 00:41:04;;;;;;;1.38;1.10;;;17.00;52.40;16.10;103018.00;;;;5034936;28;20067;-67
2021/12/19 00:44:07;;;;;;;2.47;1.40;;;17.00;52.30;16.10;103016.00;;;;5047016;28;20478;-67
2021/12/19 00:47:04;;;;;;;1.67;1.25;;;17.00;52.30;16.00;103008.00;;;;5048349;28;20040;-67
2021/12/19 00:49:50;;;;;;;1.50;1.40;;;17.00;52.30;16.00;103007.00;;;;5044263;28;20055;-67
2021/12/19 00:52:36;;;;;;;1.55;1.30;;;17.00;52.30;16.00;102998.00;;;;5046741;28;20379;-67
2021/12/19 00:55:24;;;;;;;1.48;1.15;;;17.00;53.00;16.00;102994.00;;;;5035313;28;20072;-67
2021/12/19 00:58:10;;;;;;;2.10;1.42;;;17.00;52.30;16.00;102999.00;;;;5048110;28;20486;-67
2021/12/19 01:00:57;;;;;;;1.38;1.27;;;17.00;52.30;16.00;103000.00;;;;5046825;28;20041;-67
2021/12/19 01:03:44;;;;;;;1.55;1.00;;;17.00;52.30;16.00;102996.00;;;;5033007;28;20044;-67
2021/12/19 01:06:30;;;;;;;1.75;1.08;;;16.90;52.20;16.00;103004.00;;;;5047084;28;20498;-67
2021/12/19 01:09:17;;;;;;;2.50;1.10;;;16.90;52.20;16.00;103004.00;;;;5047573;28;20048;-67
2021/12/19 01:12:04;;;;;;;1.08;0.98;;;16.90;52.30;16.00;102998.00;;;;5012624;28;20052;-67
2021/12/19 01:14:50;;;;;;;1.42;1.10;;;16.90;52.30;16.00;102996.00;;;;5031221;28;20045;-67
2021/12/19 01:17:36;;;;;;;1.67;1.17;;;16.90;52.30;16.00;102995.00;;;;5043707;28;20048;-67
2021/12/19 01:20:25;;;;;;;1.48;0.90;;;16.90;52.30;16.00;102990.00;;;;5032837;28;20029;-67
2021/12/19 01:23:12;;;;;;;1.40;0.90;;;16.90;53.00;16.00;102983.00;;;;5047190;28;20037;-67
2021/12/19 01:25:58;;;;;;;1.30;0.93;;;16.90;52.30;16.00;102982.00;;;;5046613;28;20041;-67
2021/12/19 01:28:44;;;;;;;1.20;0.98;;;16.90;52.20;16.00;102975.00;;;;5046680;28;20045;-67
2021/12/19 01:31:30;;;;;;;1.00;0.90;;;16.90;52.30;15.90;102973.00;;;;5047253;28;20056;-67
2021/12/19 01:34:16;;;;;;;2.20;1.40;;;16.90;52.30;15.90;102976.00;;;;5033805;28;20041;-67
2021/12/19 01:37:03;;;;;;;1.33;1.23;;;16.90;52.30;15.90;102976.00;;;;5045175;28;20045;-67
2021/12/19 01:39:49;;;;;;;1.20;0.90;;;16.90;52.30;15.90;102960.00;;;;5045467;28;20555;-67
2021/12/19 01:42:38;;;;;;;2.33;1.05;;;16.90;52.30;15.90;102960.00;;;;5047161;28;20048;-67
2021/12/19 01:45:34;;;;;;;0.90;0.90;;;16.90;52.30;15.90;102953.00;;;;5034851;28;20052;-67
2021/12/19 01:48:21;;;;;;;1.92;1.30;;;16.90;52.30;15.90;102956.00;;;;5019067;28;20040;-67
2021/12/19 01:51:07;;;;;;;1.50;0.98;;;16.80;52.20;15.90;102950.00;;;;5034763;28;20090;-67
2021/12/19 01:53:53;;;;;;;1.15;0.90;;;16.80;52.20;15.90;102956.00;;;;5025128;28;20434;-67
2021/12/19 01:56:39;;;;;;;1.42;1.02;;;16.80;52.20;15.90;102960.00;;;;5032801;28;20048;-67
2021/12/19 01:59:25;;;;;;;0.98;0.88;;;16.80;52.20;15.90;102955.00;;;;5032233;28;20033;-67
2021/12/19 02:02:12;;;;;;;1.15;1.00;;;16.80;52.20;15.90;102957.00;;;;5045599;28;20041;-67
2021/12/19 02:04:58;;;;;;;1.30;0.85;;;16.80;52.20;15.90;102949.00;;;;5047800;28;20048;-67
2021/12/19 02:07:47;;;;;;;1.00;0.90;;;16.80;52.20;15.90;102953.00;;;;5032958;28;20375;-67
2021/12/19 02:10:34;;;;;;;1.60;0.95;;;16.80;52.20;15.90;102945.00;;;;5032669;28;20048;-67
2021/12/19 02:13:20;;;;;;;1.07;0.90;;;16.80;52.20;15.90;102931.00;;;;5026316;28;20543;-67
2021/12/19 02:16:06;;;;;;;1.25;0.90;;;16.80;52.20;15.90;102927.00;;;;5047410;28;20144;-67
2021/12/19 02:18:52;;;;;;;1.55;1.15;;;16.80;52.20;15.90;102932.00;;;;5046086;28;20368;-67
2021/12/19 02:21:39;;;;;;;1.80;1.20;;;16.80;52.20;15.90;102930.00;;;;5034354;28;20538;-67
2021/12/19 02:24:25;;;;;;;1.30;1.00;;;16.80;52.20;15.90;102921.00;;;;5033913;28;20036;-67
2021/12/19 02:27:11;;;;;;;1.77;1.02;;;16.80;52.90;15.90;102916.00;;;;5046214;28;20045;-67
2021/12/19 02:29:57;;;;;;;1.15;0.95;;;16.80;52.20;15.90;102919.00;;;;5040959;28;20114;-67
2021/12/19 02:32:43;;;;;;;1.50;1.05;;;16.80;52.20;15.90;102918.00;;;;5043867;28;20500;-67
2021/12/19 02:35:33;;;;;;;1.40;0.88;;;16.80;52.20;15.90;102911.00;;;;5014766;28;20041;-67
2021/12/19 02:50:11;;;;;;;1.13;1.00;;;16.80;52.20;15.90;102882.00;;;;5020792;28;20324;-67
2021/12/19 02:52:59;;;;;;;1.20;1.00;;;16.80;52.20;15.90;102881.00;;;;5015881;28;20215;-67
2021/12/19 02:55:45;;;;;;;1.13;1.02;;;16.80;52.20;15.90;102875.00;;;;5044914;28;20036;-67
2021/12/19 02:58:32;;;;;;;1.30;1.02;;;16.80;52.20;15.90;102870.00;;;;5022035;28;20048;-67
2021/12/19 03:01:20;;;;;;;1.63;1.23;;;16.80;52.20;15.90;102868.00;;;;5032480;28;20120;-67
2021/12/19 03:04:07;;;;;;;1.83;1.00;;;16.80;52.20;15.90;102869.00;;;;5040636;28;20424;-67
2021/12/19 03:06:54;;;;;;;1.10;1.00;;;16.80;52.20;15.80;102865.00;;;;5047187;28;20037;-67
2021/12/19 03:18:54;;;;;;;0.95;0.85;;;16.80;52.20;15.80;102853.00;;;;5032954;28;20037;-67
2021/12/19 03:21:41;;;;;;;1.58;1.08;;;16.80;52.30;15.80;102855.00;;;;5031677;28;20132;-67
2021/12/19 03:24:27;;;;;;;1.00;0.90;;;16.80;52.20;15.80;102853.00;;;;5045711;28;20037;-67
2021/12/19 03:27:13;;;;;;;0.82;0.73;;;16.70;52.20;15.80;102856.00;;;;5045976;28;20095;-67
2021/12/19 03:29:59;;;;;;;1.75;1.00;;;16.70;52.20;15.80;102855.00;;;;5042083;28;20045;-67
2021/12/19 03:32:46;;;;;;;1.95;1.40;;;16.70;52.20;15.80;102851.00;;;;5046432;28;20098;-67
2021/12/19 03:35:32;;;;;;;1.27;1.00;;;16.70;52.20;15.80;102850.00;;;;5031466;28;20068;-67
2021/12/19 03:38:18;;;;;;;2.28;0.82;;;16.70;52.20;15.80;102849.00;;;;5017525;28;20041;-67
2021/12/19 03:41:17;;;;;;;1.25;1.00;;;16.80;52.30;15.80;102830.00;;;;5032208;28;20041;-67
2021/12/19 03:44:13;;;;;;;;;;;16.70;52.20;15.80;102831.00;;;;5031564;28;20383;-67
2021/12/19 03:47:00;;;;;;;0.95;0.85;;;16.80;52.30;15.80;102836.00;;;;5045136;28;20701;-67
2021/12/19 03:49:46;;;;;;;1.42;1.10;;;16.80;52.20;15.80;102837.00;;;;5029002;28;20106;-67
2021/12/19 03:52:33;;;;;;;1.27;0.93;;;16.80;52.10;15.80;102835.00;;;;5044643;28;20045;-67
2021/12/19 03:55:21;;;;;;;1.02;0.93;;;16.80;52.10;15.80;102834.00;;;;5032446;28;20120;-67
2021/12/19 03:58:07;;;;;;;1.10;1.00;;;16.70;52.20;15.80;102829.00;;;;5045757;28;20212;-67
2021/12/19 04:00:54;;;;;;;1.30;1.10;;;16.70;52.30;15.80;102822.00;;;;5019052;28;20099;-67
2021/12/19 04:03:41;;;;;;;1.33;0.70;;;16.70;52.20;15.80;102819.00;;;;5046113;28;20033;-67
2021/12/19 04:06:27;;;;;;;1.33;1.23;;;16.70;52.20;15.80;102812.00;;;;5046752;28;20033;-67
2021/12/19 04:09:13;;;;;;;1.58;0.90;;;16.70;52.20;15.80;102814.00;;;;5049191;28;20090;-67
2021/12/19 04:11:59;;;;;;;1.60;0.90;;;16.70;52.20;15.80;102815.00;;;;5037635;28;20049;-67
2021/12/19 04:14:45;;;;;;;2.20;1.20;;;16.70;52.20;15.80;102813.00;;;;5047558;28;20041;-67
2021/12/19 04:17:33;;;;;;;1.70;1.15;;;16.70;52.20;15.80;102819.00;;;;5049533;28;20044;-67
2021/12/19 04:20:19;;;;;;;1.27;0.80;;;16.70;52.30;15.80;102802.00;;;;5035058;28;20045;-67
2021/12/19 04:23:05;;;;;;;2.10;1.20;;;16.70;52.20;15.80;102802.00;;;;5032933;28;20181;-67
2021/12/19 04:25:52;;;;;;;1.20;1.10;;;16.70;52.20;15.90;102795.00;;;;5029289;28;20387;-67
2021/12/19 04:28:38;;;;;;;1.42;1.10;;;16.80;52.20;15.80;102793.00;;;;5037363;28;20041;-67
2021/12/19 04:31:25;;;;;;;1.48;1.10;;;16.80;52.80;15.90;102787.00;;;;5045377;28;20052;-67
2021/12/19 04:34:14;;;;;;;1.25;0.90;;;16.80;52.20;15.90;102795.00;;;;5047965;28;20052;-67
2021/12/19 04:37:08;;;;;;;1.73;1.20;;;16.80;52.20;15.90;102801.00;;;;5032930;28;20048;-67
2021/12/19 04:40:07;;;;;;;1.58;1.20;;;16.80;52.20;15.90;102806.00;;;;5046719;28;20041;-67
2021/12/19 04:58:20;;;;;;;0.85;0.70;;;16.80;52.20;15.90;102775.00;;;;5049714;28;20041;-67
2021/12/19 05:04:03;;;;;;;1.17;0.90;;;16.80;52.20;15.90;102771.00;;;;5045221;28;20041;-67
2021/12/19 05:16:05;;;;;;;1.10;0.80;;;16.90;52.30;15.90;102755.00;;;;5047915;28;20048;-67
2021/12/19 05:18:53;;;;;;;0.70;0.70;;;16.80;52.20;15.90;102761.00;;;;5048931;28;20049;-67
2021/12/19 05:21:41;;;;;;;1.17;0.98;;;16.90;52.30;15.90;102762.00;;;;5045284;28;20040;-67
2021/12/19 05:27:22;;;;;;;0.50;0.43;;;16.80;52.20;15.90;102758.00;;;;5043963;28;20032;-67
2021/12/19 05:30:10;;;;;;;1.33;0.70;;;16.80;52.20;15.90;102754.00;;;;5046355;28;20036;-67
2021/12/19 05:32:56;;;;;;;1.98;0.73;;;16.90;52.20;15.90;102760.00;;;;5009453;28;20040;-67
2021/12/19 05:47:30;;;;;;;1.23;0.50;;;16.90;52.20;15.90;102745.00;;;;5044701;28;20071;-67
2021/12/19 05:50:19;;;;;;;0.65;0.60;;;16.90;52.20;15.90;102745.00;;;;5046665;28;20128;-67
2021/12/19 05:53:06;;;;;;;0.98;0.45;;;16.90;52.20;15.90;102744.00;;;;5046174;28;20123;-67
2021/12/19 05:55:52;;;;;;;0.43;0.40;;;16.90;52.20;15.90;102750.00;;;;5027742;28;20049;-67
2021/12/19 05:58:38;;;;;;;0.45;0.45;;;16.90;52.20;15.90;102741.00;;;;5048808;28;20056;-67
2021/12/19 06:01:24;;;;;;;0.75;0.50;;;16.90;52.10;15.90;102746.00;;;;5046027;28;20036;-68
2021/12/19 06:04:10;;;;;;;0.40;0.32;;;16.90;52.20;15.90;102749.00;;;;5046710;28;20374;-67
2021/12/19 06:06:56;;;;;;;0.80;0.50;;;16.90;52.10;15.90;102752.00;;;;5046898;28;20044;-67
2021/12/19 06:09:43;;;;;;;0.82;0.40;;;16.90;52.10;15.90;102743.00;;;;5046194;28;20470;-67
2021/12/19 06:12:29;;;;;;;1.23;0.50;;;16.90;52.10;15.90;102750.00;;;;5031328;28;20136;-67
2021/12/19 06:15:15;;;;;;;0.57;0.30;;;16.90;52.10;15.90;102743.00;;;;5047352;28;20456;-67
2021/12/19 06:18:02;;;;;;;0.63;0.40;;;16.90;52.10;16.00;102735.00;;;;5033888;28;20163;-67
2021/12/19 06:20:48;;;;;;;1.00;0.43;;;16.90;52.10;15.90;102740.00;;;;4998910;28;20395;-67
2021/12/19 06:23:34;;;;;;;0.50;0.43;;;16.90;52.10;16.00;102735.00;;;;5045544;28;20051;-68
2021/12/19 06:26:20;;;;;;;0.43;0.40;;;16.90;52.10;16.00;102738.00;;;;5033540;28;20079;-67
2021/12/19 06:29:07;;;;;;;0.60;0.50;;;16.90;52.10;15.90;102722.00;;;;5046202;28;20099;-67
2021/12/19 06:31:53;;;;;;;0.75;0.40;;;16.90;52.10;15.90;102722.00;;;;5046049;28;20041;-67
2021/12/19 06:34:39;;;;;;;0.50;0.40;;;16.90;52.10;15.90;102712.00;;;;5014994;28;20044;-67
2021/12/19 06:37:26;;;;;;;0.60;0.40;;;16.90;52.10;15.90;102716.00;;;;5045321;28;20102;-67
2021/12/19 06:40:15;;;;;;;0.40;0.40;;;16.90;52.10;15.90;102717.00;;;;5032952;28;20049;-67
2021/12/19 06:43:01;;;;;;;0.38;0.38;;;16.90;52.10;15.90;102718.00;;;;5043818;28;20708;-67
2021/12/19 06:45:48;;;;;;;0.30;0.30;;;16.90;52.10;15.90;102717.00;;;;5047003;28;20044;-67
2021/12/19 06:48:34;;;;;;;0.30;0.30;;;16.90;52.10;15.90;102714.00;;;;5044821;28;20486;-67
2021/12/19 06:51:21;;;;;;;0.85;0.30;;;16.90;52.10;15.90;102707.00;;;;5032850;28;20040;-67
2021/12/19 06:54:08;;;;;;;0.45;0.25;;;16.90;52.10;15.90;102711.00;;;;5044357;28;20134;-67
2021/12/19 06:56:54;;;;;;;1.00;0.35;;;16.90;52.10;15.90;102717.00;;;;5043013;28;20049;-67
2021/12/19 06:59:40;;;;;;;0.30;0.28;;;16.80;52.00;15.90;102716.00;;;;5047258;28;20055;-67
2021/12/19 07:02:26;;;;;;;0.90;0.30;;;16.80;52.00;15.90;102709.00;;;;5045376;28;20127;-67
2021/12/19 07:05:12;;;;;;;0.70;0.50;;;16.80;52.00;15.90;102715.00;;;;5028592;28;20036;-67
2021/12/19 07:07:58;;;;;;;0.43;0.28;;;16.90;52.10;15.90;102703.00;;;;5049057;28;20052;-67
2021/12/19 07:10:45;;;;;;;0.82;0.40;;;16.90;52.10;15.90;102705.00;;;;5045504;28;20053;-67
2021/12/19 07:13:31;;;;;;;0.52;0.30;;;16.90;52.10;15.90;102704.00;;;;5032057;28;20126;-67
2021/12/19 07:16:17;;;;;;;0.68;0.55;;;16.80;52.10;15.90;102707.00;;;;5041866;28;20041;-67
2021/12/19 07:19:03;;;;;;;1.42;0.38;;;16.90;52.10;15.90;102705.00;;;;5047068;28;20044;-67
2021/12/19 07:21:50;;;;;;;0.30;0.30;;;16.80;52.00;15.90;102702.00;;;;5044008;28;20095;-67
2021/12/19 07:24:36;;;;;;;0.43;0.30;;;16.80;52.00;15.90;102708.00;;;;5031106;28;20102;-67
2021/12/19 07:27:22;;;;;;;0.68;0.30;;;16.90;52.10;15.90;102705.00;;;;5045852;28;20063;-67
2021/12/19 07:30:09;;;;;;;0.50;0.30;;;16.90;52.10;15.90;102706.00;;;;5044561;28;20102;-67
2021/12/19 07:32:57;;;;;;;0.67;0.50;;;16.90;52.10;15.90;102707.00;;;;5043805;28;20375;-67
2021/12/19 07:35:45;;;;;;;0.30;0.30;;;16.90;52.10;15.90;102703.00;;;;5043709;28;20065;-67
2021/12/19 07:38:37;;;;;;;0.70;0.40;;;16.90;52.10;15.90;102710.00;;;;5044990;28;20123;-67
2021/12/19 07:41:24;;;;;;;0.20;0.20;;;16.90;52.00;15.90;102697.00;;;;5044075;28;20040;-67
2021/12/19 07:44:10;;;;;;;0.20;0.20;;;16.90;52.00;15.90;102704.00;;;;5029105;28;20039;-67
2021/12/19 07:46:56;;;;;;;0.95;0.50;;;16.90;52.00;15.90;102699.00;;;;5041454;28;20068;-67
2021/12/19 07:49:42;;;;;;;0.40;0.40;;;16.90;52.10;15.90;102705.00;;;;5048476;28;20041;-67
2021/12/19 07:52:29;;;;;;;0.30;0.30;;;16.90;52.00;15.90;102695.00;;;;5028767;28;20127;-67
2021/12/19 07:55:15;;;;;;;0.45;0.45;;;16.90;52.00;15.90;102691.00;;;;5044048;28;20040;-67
2021/12/19 07:58:01;;;;;;;0.80;0.30;;;16.90;52.00;15.90;102685.00;;;;5012069;28;20048;-67
2021/12/19 08:00:47;;;;;;;0.40;0.40;;;16.80;51.90;15.90;102696.00;;;;5032920;28;20108;-67
2021/12/19 08:03:33;;;;;;;0.77;0.50;;;16.90;52.00;15.90;102705.00;;;;5044371;28;20045;-68
2021/12/19 08:06:20;;;;;;;0.77;0.47;;;16.80;51.90;15.90;102690.00;;;;5048066;28;20041;-67
2021/12/19 08:09:10;;;;;;;0.90;0.50;;;16.90;51.90;15.90;102684.00;;;;5045909;28;20037;-67
2021/12/19 08:11:56;;;;;;;0.50;0.50;;;16.90;52.00;15.90;102685.00;;;;5040409;28;20068;-67
2021/12/19 08:14:42;;;;;;;0.60;0.40;;;16.90;52.00;15.90;102686.00;;;;5044075;28;20580;-67
2021/12/19 08:17:31;;;;;;;0.63;0.47;;;16.90;52.00;15.90;102683.00;;;;5047654;28;20044;-67
2021/12/19 08:20:17;;;;;;;0.98;0.60;;;16.90;52.00;15.90;102683.00;;;;5029398;28;20036;-67
2021/12/19 08:23:03;;;;;;;0.40;0.40;;;16.90;52.00;15.90;102672.00;;;;5047406;28;20041;-67
2021/12/19 08:25:49;;;;;;;0.32;0.32;;;16.90;52.00;15.90;102677.00;;;;5045835;28;20095;-67
2021/12/19 08:28:36;;;;;;;0.40;0.40;;;16.50;51.80;15.90;102686.00;;;;5034248;28;20043;-67
2021/12/19 08:31:22;;;;;;;0.65;0.50;;;16.80;51.90;15.90;102689.00;;;;5018368;28;20033;-67
2021/12/19 08:34:08;;;;;;;0.65;0.40;;;16.80;51.90;15.90;102677.00;;;;5045543;28;20471;-68
2021/12/19 08:36:55;;;;;;;0.73;0.50;;;16.80;51.90;15.90;102669.00;;;;5041381;28;20041;-67
2021/12/19 08:39:44;;;;;;;0.52;0.40;;;16.80;51.90;15.90;102671.00;;;;5031697;28;20037;-67
2021/12/19 08:42:33;;;;;;;0.40;0.25;;;16.80;51.90;15.90;102663.00;;;;5032908;28;20703;-67
2021/12/19 08:45:23;;;;;;;0.40;0.40;;;16.80;52.00;15.90;102668.00;;;;5034360;28;20414;-67
2021/12/19 08:48:09;;;;;;;0.50;0.50;;;16.80;52.00;15.80;102670.00;;;;5048890;28;20041;-67
2021/12/19 08:50:55;;;;;;;1.05;0.32;;;16.70;51.90;15.90;102666.00;;;;5047626;28;20429;-67
2021/12/19 08:54:02;;;;;;;0.52;0.38;;;16.80;52.00;15.80;102664.00;;;;5024405;28;20379;-67
2021/12/19 08:56:49;;;;;;;0.77;0.60;;;16.80;52.00;15.80;102649.00;;;;5044763;28;20045;-67
2021/12/19 08:59:35;;;;;;;0.80;0.52;;;16.80;52.00;15.80;102645.00;;;;5043726;28;20621;-67
2021/12/19 09:02:21;;;;;;;0.90;0.40;;;16.80;52.00;15.80;102652.00;;;;5032695;28;20069;-67
2021/12/19 09:05:08;;;;;;;0.30;0.28;;;16.80;52.00;15.80;102651.00;;;;5043179;28;20040;-67
2021/12/19 09:07:55;;;;;;;0.82;0.50;;;16.80;52.00;15.80;102650.00;;;;5047034;28;20048;-67
2021/12/19 09:10:41;;;;;;;0.70;0.40;;;16.70;52.00;15.80;102642.00;;;;5047250;28;20036;-67
2021/12/19 09:13:27;;;;;;;1.50;0.50;;;16.70;52.00;15.80;102652.00;;;;5047335;28;20391;-67
2021/12/19 09:16:13;;;;;;;1.33;0.40;;;16.70;52.00;15.80;102649.00;;;;5046631;28;20075;-67
2021/12/19 09:18:59;;;;;;;0.32;0.32;;;16.70;52.70;15.80;102651.00;;;;5050669;28;20052;-67
2021/12/19 09:21:46;;;;;;;0.68;0.40;;;16.70;52.00;15.80;102643.00;;;;5044664;28;20551;-67
2021/12/19 09:24:32;;;;;;;1.02;0.43;;;16.80;52.00;15.80;102648.00;;;;5034416;28;20068;-67
2021/12/19 09:27:18;;;;;;;0.52;0.40;;;16.80;52.00;15.80;102643.00;;;;5043436;28;20047;-67
2021/12/19 09:30:06;;;;;;;0.55;0.50;;;16.70;52.00;15.80;102634.00;;;;5012268;28;20049;-67
2021/12/19 09:32:53;;;;;;;0.65;0.50;;;16.70;52.00;15.80;102642.00;;;;5028721;28;20438;-67
2021/12/19 09:35:39;;;;;;;0.40;0.30;;;16.80;52.00;15.80;102627.00;;;;5043772;28;20045;-67
2021/12/19 09:38:26;;;;;;;1.10;0.50;;;16.70;52.00;15.80;102630.00;;;;5030226;28;20418;-67
2021/12/19 09:41:13;;;;;;;1.27;0.80;;;16.80;52.10;15.80;102625.00;;;;5007290;28;20036;-67
2021/12/19 09:44:04;;;;;;;0.43;0.40;;;16.70;52.00;15.80;102639.00;;;;5010116;28;20078;-67
2021/12/19 09:46:50;;;;;;;0.70;0.57;;;16.80;52.00;15.80;102631.00;;;;5025911;28;20517;-69
2021/12/19 09:49:37;;;;;;;1.17;0.68;;;16.80;52.00;15.80;102635.00;;;;5026172;28;20052;-69
2021/12/19 09:52:23;;;;;;;1.25;0.50;;;16.80;52.10;15.90;102635.00;;;;5046643;28;20518;-69
2021/12/19 09:55:10;;;;;;;0.82;0.50;;;16.80;52.10;15.90;102620.00;;;;5035565;28;20183;-68
2021/12/19 09:57:57;;;;;;;0.93;0.50;;;16.70;52.00;15.90;102620.00;;;;5039675;28;20203;-69
2021/12/19 10:00:43;;;;;;;3.20;0.80;;;16.80;52.00;15.90;102615.00;;;;5031787;28;20056;-68
2021/12/19 10:03:29;;;;;;;1.63;0.60;;;16.80;52.00;15.90;102619.00;;;;5015665;28;20067;-68
2021/12/19 10:06:22;;;;;;;1.48;0.57;;;16.80;52.00;15.90;102618.00;;;;5037390;28;20044;-68
2021/12/19 10:09:19;;;;;;;0.70;0.50;;;16.80;52.00;15.90;102616.00;;;;5012728;28;20328;-68
2021/12/19 10:15:27;;;;;;;1.45;0.70;;;16.80;52.00;15.90;102611.00;;;;5038464;28;20343;-70
2021/12/19 10:18:15;;;;;;;2.17;0.80;;;16.80;52.00;15.90;102604.00;;;;5029690;28;20049;-69
2021/12/19 10:21:02;;;;;;;1.02;0.75;;;16.80;52.00;15.90;102605.00;;;;5038272;28;20109;-69
2021/12/19 10:23:48;;;;;;;0.93;0.40;;;16.80;52.00;15.90;102592.00;;;;5004399;28;20036;-69
2021/12/19 10:26:43;;;;;;;1.58;0.80;;;16.80;52.00;15.90;102595.00;;;;5047268;28;20043;-69
2021/12/19 10:29:46;;;;;;;0.65;0.55;;;16.80;52.00;15.90;102595.00;;;;5044839;28;20059;-69
2021/12/19 10:32:32;;;;;;;1.23;0.60;;;16.80;52.00;15.90;102594.00;;;;5044630;28;20037;-69
2021/12/19 10:35:31;;;;;;;2.92;0.80;;;16.80;52.00;15.90;102586.00;;;;5043421;28;20049;-69
2021/12/19 10:38:20;;;;;;;1.08;0.93;;;16.80;52.00;15.90;102587.00;;;;5031806;28;20060;-69
2021/12/19 10:41:16;;;;;;;1.25;0.68;;;16.80;52.00;15.90;102586.00;;;;5045081;28;20084;-69
2021/12/19 10:44:06;;;;;;;1.27;0.68;;;16.80;52.00;15.90;102577.00;;;;5045471;28;20048;-69
2021/12/19 10:46:52;;;;;;;1.35;0.73;;;16.80;52.00;15.90;102570.00;;;;5029248;28;20043;-69
2021/12/19 10:49:38;;;;;;;2.42;0.60;;;16.80;52.00;15.90;102577.00;;;;5030535;28;20041;-69
2021/12/19 10:52:34;;;;;;;0.60;0.60;;;16.80;52.00;15.90;102576.00;;;;5044917;28;20257;-69
2021/12/19 10:55:20;;;;;;;1.58;0.80;;;16.80;52.00;15.90;102572.00;;;;5030774;28;20044;-69
2021/12/19 10:58:44;;;;;;;2.38;1.00;;;16.80;52.00;15.90;102558.00;;;;5019698;28;20050;-69
2021/12/19 11:01:31;;;;;;;1.27;0.70;;;16.80;52.00;15.90;102572.00;;;;5001939;28;21184;-69
2021/12/19 11:04:21;;;;;;;2.35;1.00;;;16.80;52.00;15.90;102571.00;;;;5002514;28;20092;-69
2021/12/19 11:07:08;;;;;;;1.23;0.95;;;16.90;52.10;15.90;102556.00;;;;5002114;28;20096;-69
2021/12/19 11:09:54;;;;;;;1.80;0.82;;;16.90;52.10;15.90;102552.00;;;;5016208;28;20038;-69
2021/12/19 11:12:40;;;;;;;1.05;0.80;;;16.80;52.00;15.90;102545.00;;;;5003413;28;20096;-69
2021/12/19 11:15:26;;;;;;;1.50;0.90;;;16.90;52.10;15.90;102540.00;;;;5005120;28;20038;-70
2021/12/19 11:18:12;;;;;;;1.88;1.08;;;16.90;52.10;15.90;102538.00;;;;5004569;28;20052;-69
2021/12/19 11:20:58;;;;;;;2.20;0.65;;;16.80;52.00;15.90;102536.00;;;;5019435;28;20757;-69
2021/12/19 11:23:55;;;;;;;1.33;0.73;;;16.90;52.10;15.90;102525.00;;;;5007558;28;20111;-69
2021/12/19 11:26:44;;;;;;;1.15;0.70;;;16.90;52.10;15.90;102524.00;;;;5002412;28;20407;-68
2021/12/19 11:29:30;;;;;;;1.73;1.33;;;16.90;52.10;15.90;102520.00;;;;5007686;28;20038;-69
2021/12/19 11:32:19;;;;;;;1.35;0.90;;;16.90;52.00;15.90;102510.00;;;;4997590;28;20322;-71
2021/12/19 11:35:11;;;;;;;0.82;0.63;;;16.90;52.10;16.00;102505.00;;;;5007562;28;20042;-71
2021/12/19 11:38:03;;;;;;;1.23;0.80;;;16.90;52.00;15.90;102496.00;;;;4991135;28;20045;-69
2021/12/19 11:40:51;;;;;;;1.40;0.77;;;16.90;52.00;15.90;102496.00;;;;5005603;28;20060;-69
2021/12/19 11:43:39;;;;;;;3.55;0.98;;;16.90;52.00;16.00;102491.00;;;;4994653;28;20073;-70
2021/12/19 11:46:54;;;;;;;13.90;1.33;;;16.90;52.10;16.00;102478.00;;;;5001677;28;20037;-70
2021/12/19 11:49:40;;;;;;;3.05;1.05;;;16.90;52.10;16.00;102482.00;;;;5014707;28;20054;-70
2021/12/19 11:52:30;;;;;;;3.47;0.90;;;16.90;52.20;16.00;102470.00;;;;4999337;28;20041;-70
2021/12/19 11:55:18;;;;;;;3.08;0.98;;;16.90;52.30;16.00;102474.00;;;;4981149;28;20045;-70
2021/12/19 11:58:07;;;;;;;;;;;16.90;52.30;16.00;102458.00;;;;5028263;28;20049;-70
2021/12/19 12:00:57;;;;;;;;;;;16.90;52.30;16.00;102461.00;;;;5035931;28;19939;-71
2021/12/19 12:03:48;;;;;;;3.63;1.20;;;16.90;52.20;16.00;102460.00;;;;5018724;28;19920;-70
2021/12/19 12:06:40;;;;;;;2.95;0.82;;;17.00;52.10;16.00;102456.00;;;;5027171;28;20048;-67
2021/12/19 12:09:38;;;;;;;3.33;1.00;;;17.00;52.10;16.00;102451.00;;;;5012383;28;20045;-67
2021/12/19 12:12:34;;;;;;;2.75;1.10;;;17.00;52.10;16.00;102448.00;;;;5048493;28;20044;-67
2021/12/19 12:15:20;;;;;;;2.63;1.08;;;17.00;52.10;16.00;102446.00;;;;5046871;28;20036;-67
2021/12/19 12:18:34;;;;;;;2.55;1.00;;;17.00;52.10;16.00;102435.00;;;;5019718;28;20387;-68
2021/12/19 12:21:22;;;;;;;1.77;0.90;;;16.90;52.10;16.00;102434.00;;;;5031412;28;20047;-67
2021/12/19 12:24:17;;;;;;;3.42;1.13;;;16.90;52.10;16.00;102434.00;;;;5027434;28;20127;-67
2021/12/19 12:27:05;;;;;;;3.28;1.33;;;16.90;52.10;16.00;102428.00;;;;5029174;28;20394;-67
2021/12/19 12:29:51;;;;;;;2.10;0.88;;;16.90;52.10;16.00;102424.00;;;;5046749;28;20037;-67
2021/12/19 12:32:37;;;;;;;2.70;0.93;;;16.90;52.10;16.00;102419.00;;;;5032314;28;20418;-67
2021/12/19 12:35:25;;;;;;;2.08;0.77;;;16.90;52.10;16.00;102424.00;;;;5031002;28;20039;-68
2021/12/19 12:38:12;;;;;;;0.82;0.75;;;17.00;52.20;16.00;102420.00;;;;5024586;28;20037;-67
2021/12/19 12:41:15;;;;;;;2.50;0.80;;;17.00;52.20;16.00;102428.00;;;;5047679;28;20037;-67
2021/12/19 12:44:10;;;;;;;4.80;1.30;;;16.90;52.10;16.00;102431.00;;;;5035195;28;20044;-67
2021/12/19 12:46:57;;;;;;;5.15;1.30;;;17.00;52.10;16.00;102431.00;;;;5012534;28;20068;-68
2021/12/19 12:49:43;;;;;;;1.70;0.82;;;17.00;52.10;16.00;102421.00;;;;5046361;28;20096;-67
2021/12/19 12:52:29;;;;;;;3.50;0.77;;;17.00;52.20;16.00;102418.00;;;;5032086;28;20052;-67
2021/12/19 12:55:15;;;;;;;1.35;0.90;;;17.00;52.10;16.00;102412.00;;;;5043696;28;20033;-67
2021/12/19 12:58:16;;;;;;;5.45;0.90;;;17.00;52.10;16.00;102415.00;;;;5032663;28;20048;-67
2021/12/19 13:01:25;;;;;;;1.75;0.90;;;16.90;52.10;16.00;102416.00;;;;5026925;28;20067;-67
2021/12/19 13:04:18;;;;;;;1.98;0.70;;;17.00;52.80;16.00;102406.00;;;;5042902;28;20045;-67
2021/12/19 13:07:09;;;;;;;4.32;1.00;;;17.00;52.10;16.00;102404.00;;;;5027516;28;20094;-67
2021/12/19 13:10:00;;;;;;;3.03;1.10;;;17.00;52.10;16.00;102402.00;;;;5032583;28;20512;-67
2021/12/19 13:12:47;;;;;;;2.33;0.85;;;17.00;52.10;16.00;102399.00;;;;5019929;28;20033;-67
2021/12/19 13:15:33;;;;;;;2.03;1.10;;;17.00;52.10;16.00;102393.00;;;;5045992;28;20544;-67
2021/12/19 13:18:19;;;;;;;1.08;0.85;;;17.00;52.10;16.00;102407.00;;;;5046365;28;20445;-67
2021/12/19 13:21:05;;;;;;;1.40;0.80;;;17.00;52.10;16.00;102406.00;;;;5046297;28;20051;-67
2021/12/19 13:24:03;;;;;;;4.28;1.05;;;17.00;52.10;16.00;102393.00;;;;5033664;28;20040;-67
2021/12/19 13:27:05;;;;;;;2.90;0.60;;;17.00;52.10;16.00;102410.00;;;;5045171;28;20067;-67
2021/12/19 13:30:20;;;;;;;3.40;0.95;;;17.00;52.10;16.00;102404.00;;;;5014319;28;20530;-67
2021/12/19 13:33:11;;;;;;;1.55;0.77;;;17.00;52.10;16.00;102408.00;;;;5043163;28;20127;-67